createdAt,value
2019-03-13T00:02:19.141Z,28.70
2019-03-13T00:04:49.716Z,28.70
2019-03-13T00:07:20.164Z,28.70
2019-03-13T00:09:51.584Z,28.70
2019-03-13T00:12:22.021Z,28.60
2019-03-13T00:14:52.520Z,28.50
2019-03-13T00:17:23.082Z,28.60
2019-03-13T00:19:53.462Z,28.50
2019-03-13T00:22:23.961Z,28.50
2019-03-13T00:24:56.225Z,28.50
2019-03-13T00:27:26.607Z,28.50
2019-03-13T00:29:57.068Z,28.50
2019-03-13T00:32:27.454Z,28.50
2019-03-13T00:34:57.997Z,28.50
2019-03-13T00:37:28.515Z,28.50
2019-03-13T00:39:58.958Z,28.40
2019-03-13T00:42:29.418Z,28.40
2019-03-13T00:44:59.932Z,28.40
2019-03-13T00:47:30.372Z,28.40
2019-03-13T00:50:00.945Z,28.30
2019-03-13T00:52:32.344Z,28.40
2019-03-13T00:55:02.890Z,28.30
2019-03-13T00:57:33.379Z,28.30
2019-03-13T01:00:03.800Z,28.30
2019-03-13T01:02:37.890Z,28.30
2019-03-13T01:05:25.626Z,28.30
2019-03-13T01:07:56.068Z,28.20
2019-03-13T01:10:26.404Z,28.20
2019-03-13T01:12:57.820Z,28.20
2019-03-13T01:15:29.844Z,28.20
2019-03-13T01:18:00.235Z,28.20
2019-03-13T01:20:30.620Z,28.20
2019-03-13T01:23:02.012Z,28.10
2019-03-13T01:25:33.365Z,28.10
2019-03-13T01:28:03.789Z,28.10
2019-03-13T01:30:43.101Z,28.10
2019-03-13T01:33:15.289Z,28.10
2019-03-13T01:35:49.783Z,28.10
2019-03-13T01:38:20.367Z,28.00
2019-03-13T01:40:50.793Z,28.10
2019-03-13T01:43:21.259Z,28.10
2019-03-13T01:45:51.790Z,28.10
2019-03-13T01:48:22.242Z,28.00
2019-03-13T01:50:52.749Z,28.00
2019-03-13T01:53:23.186Z,28.00
2019-03-13T01:55:53.590Z,28.00
2019-03-13T01:58:24.161Z,28.00
2019-03-13T02:00:54.537Z,28.00
2019-03-13T02:03:25.017Z,28.00
2019-03-13T02:05:55.385Z,28.00
2019-03-13T02:08:26.903Z,28.00
2019-03-13T02:10:57.366Z,28.00
2019-03-13T02:13:27.888Z,28.00
2019-03-13T02:15:59.419Z,28.00
2019-03-13T02:18:30.028Z,28.00
2019-03-13T02:21:00.502Z,28.00
2019-03-13T02:23:30.984Z,28.00
2019-03-13T02:26:01.465Z,28.00
2019-03-13T02:28:31.957Z,28.00
2019-03-13T02:31:02.526Z,27.90
2019-03-13T02:33:33.020Z,28.00
2019-03-13T02:36:03.465Z,28.00
2019-03-13T02:38:33.916Z,28.00
2019-03-13T02:41:04.358Z,28.00
2019-03-13T02:43:34.943Z,27.90
2019-03-13T02:46:05.392Z,27.90
2019-03-13T02:48:35.924Z,27.80
2019-03-13T02:51:06.426Z,27.80
2019-03-13T02:53:36.780Z,27.80
2019-03-13T02:56:07.416Z,27.90
2019-03-13T02:58:37.964Z,27.80
2019-03-13T03:01:26.074Z,27.80
2019-03-13T03:03:58.462Z,27.70
2019-03-13T03:06:28.951Z,27.70
2019-03-13T03:08:59.680Z,27.80
2019-03-13T03:11:30.245Z,27.80
2019-03-13T03:14:00.719Z,27.70
2019-03-13T03:16:31.305Z,27.80
2019-03-13T03:19:01.625Z,27.70
2019-03-13T03:21:32.085Z,27.70
2019-03-13T03:24:02.688Z,27.60
2019-03-13T03:26:33.220Z,27.50
2019-03-13T03:29:04.734Z,27.60
2019-03-13T03:31:35.207Z,27.50
2019-03-13T03:34:05.895Z,27.50
2019-03-13T03:36:36.342Z,27.50
2019-03-13T03:39:07.351Z,27.50
2019-03-13T03:41:39.391Z,27.50
2019-03-13T03:44:09.898Z,27.40
2019-03-13T03:46:40.382Z,27.40
2019-03-13T03:49:10.887Z,27.50
2019-03-13T03:51:41.487Z,27.40
2019-03-13T03:54:12.014Z,27.40
2019-03-13T03:56:42.412Z,27.40
2019-03-13T03:59:12.869Z,27.40
2019-03-13T04:01:43.294Z,27.40
2019-03-13T04:04:13.733Z,27.40
2019-03-13T04:06:44.181Z,27.40
2019-03-13T04:09:14.621Z,27.30
2019-03-13T04:11:45.291Z,27.30
2019-03-13T04:14:15.748Z,27.30
2019-03-13T04:16:46.279Z,27.30
2019-03-13T04:19:16.620Z,27.20
2019-03-13T04:21:47.239Z,27.20
2019-03-13T04:24:17.639Z,27.10
2019-03-13T04:26:48.087Z,27.20
2019-03-13T04:29:18.911Z,27.20
2019-03-13T04:31:49.459Z,27.20
2019-03-13T04:34:19.813Z,27.20
2019-03-13T04:36:50.290Z,27.20
2019-03-13T04:39:20.749Z,27.10
2019-03-13T04:41:51.240Z,27.10
2019-03-13T04:44:21.606Z,27.20
2019-03-13T04:46:52.076Z,27.10
2019-03-13T04:49:22.580Z,27.10
2019-03-13T04:51:53.050Z,27.10
2019-03-13T04:54:23.558Z,27.00
2019-03-13T04:56:55.252Z,27.00
2019-03-13T04:59:25.723Z,27.10
2019-03-13T05:01:56.160Z,27.00
2019-03-13T05:04:26.647Z,27.00
2019-03-13T05:06:57.236Z,27.00
2019-03-13T05:09:45.914Z,27.00
2019-03-13T05:12:16.608Z,27.10
2019-03-13T05:14:47.082Z,27.00
2019-03-13T05:17:19.075Z,27.10
2019-03-13T05:19:49.488Z,27.00
2019-03-13T05:22:21.024Z,27.00
2019-03-13T05:24:51.585Z,26.90
2019-03-13T05:27:21.982Z,27.00
2019-03-13T05:29:52.397Z,27.00
2019-03-13T05:32:22.770Z,26.90
2019-03-13T05:34:53.304Z,26.90
2019-03-13T05:37:23.652Z,27.00
2019-03-13T05:39:54.058Z,26.90
2019-03-13T05:42:24.545Z,26.90
2019-03-13T05:44:55.092Z,26.90
2019-03-13T05:47:25.610Z,26.90
2019-03-13T05:50:00.670Z,26.90
2019-03-13T05:52:30.697Z,27.00
2019-03-13T05:55:01.124Z,26.90
2019-03-13T05:57:31.695Z,27.50
2019-03-13T06:00:02.151Z,27.00
2019-03-13T06:02:32.792Z,26.90
2019-03-13T06:05:03.391Z,27.00
2019-03-13T06:07:33.840Z,27.40
2019-03-13T06:10:05.395Z,26.90
2019-03-13T06:12:35.783Z,26.90
2019-03-13T06:15:06.414Z,26.90
2019-03-13T06:17:36.813Z,26.90
2019-03-13T06:20:10.335Z,26.90
2019-03-13T06:22:39.309Z,26.90
2019-03-13T06:25:10.258Z,26.90
2019-03-13T06:27:40.760Z,27.00
2019-03-13T06:30:12.124Z,27.00
2019-03-13T06:32:42.646Z,27.00
2019-03-13T06:35:14.703Z,27.00
2019-03-13T06:37:45.245Z,27.00
2019-03-13T06:40:15.700Z,27.00
2019-03-13T06:42:46.748Z,27.00
2019-03-13T06:45:17.243Z,27.00
2019-03-13T06:47:48.689Z,27.10
2019-03-13T06:50:19.635Z,27.10
2019-03-13T06:52:50.071Z,25.90
2019-03-13T06:57:48.708Z,24.60
2019-03-13T07:00:44.800Z,24.90
2019-03-13T07:03:40.253Z,24.80
2019-03-13T07:07:01.235Z,24.50
2019-03-13T07:09:47.272Z,24.70
2019-03-13T07:12:34.991Z,24.80
2019-03-13T07:15:27.575Z,25.40
2019-03-13T07:18:18.820Z,24.90
2019-03-13T07:21:08.282Z,25.30
2019-03-13T07:24:00.278Z,25.60
2019-03-13T07:26:52.526Z,26.40
2019-03-13T07:29:57.332Z,26.80
2019-03-13T07:32:46.020Z,27.10
2019-03-13T07:35:37.222Z,27.60
2019-03-13T07:38:33.806Z,28.10
2019-03-13T07:41:17.686Z,28.60
2019-03-13T07:43:57.176Z,29.00
2019-03-13T07:46:45.144Z,29.50
2019-03-13T07:49:34.888Z,29.80
2019-03-13T07:52:27.428Z,30.00
2019-03-13T07:55:26.488Z,30.50
2019-03-13T07:58:07.672Z,30.80
2019-03-13T08:00:55.456Z,31.10
2019-03-13T08:03:52.736Z,31.50
2019-03-13T08:06:48.491Z,31.70
2019-03-13T08:09:38.278Z,32.20
2019-03-13T08:12:26.226Z,32.30
2019-03-13T08:15:24.534Z,32.60
2019-03-13T08:18:14.954Z,32.90
2019-03-13T08:21:12.034Z,33.30
2019-03-13T08:23:52.987Z,33.40
2019-03-13T08:26:51.872Z,33.70
2019-03-13T08:29:39.650Z,33.70
2019-03-13T08:32:47.123Z,33.90
2019-03-13T08:35:35.318Z,34.30
2019-03-13T08:38:24.745Z,34.60
2019-03-13T08:41:06.127Z,35.00
2019-03-13T08:44:00.616Z,35.10
2019-03-13T08:46:40.078Z,35.20
2019-03-13T08:49:29.402Z,35.50
2019-03-13T08:52:22.592Z,35.70
2019-03-13T08:55:06.436Z,35.70
2019-03-13T08:58:11.266Z,36.30
2019-03-13T09:01:02.156Z,36.70
2019-03-13T09:03:45.985Z,36.90
2019-03-13T09:12:22.459Z,37.90
2019-03-13T09:15:06.581Z,37.90
2019-03-13T09:21:15.951Z,37.50
2019-03-13T09:26:52.016Z,37.10
2019-03-13T09:29:46.104Z,37.70
2019-03-13T09:32:34.512Z,37.80
2019-03-13T09:35:38.708Z,38.00
2019-03-13T09:38:34.283Z,38.00
2019-03-13T09:41:16.706Z,38.10
2019-03-13T09:44:08.473Z,38.20
2019-03-13T09:47:07.253Z,38.40
2019-03-13T09:50:05.360Z,38.60
2019-03-13T09:53:18.942Z,38.90
2019-03-13T09:56:11.306Z,39.40
2019-03-13T09:58:55.635Z,39.80
2019-03-13T10:01:46.851Z,39.70
2019-03-13T10:04:42.576Z,36.10
2019-03-13T10:10:49.184Z,36.40
2019-03-13T10:13:39.106Z,35.50
2019-03-13T10:16:24.513Z,34.60
2019-03-13T10:22:06.407Z,35.50
2019-03-13T10:27:47.649Z,37.40
2019-03-13T10:30:34.743Z,38.60
2019-03-13T10:33:33.312Z,38.20
2019-03-13T10:36:13.463Z,38.20
2019-03-13T10:39:11.801Z,38.30
2019-03-13T10:42:07.898Z,38.60
2019-03-13T10:45:03.686Z,38.20
2019-03-13T10:47:35.975Z,38.90
2019-03-13T10:54:00.932Z,38.00
2019-03-13T10:59:36.375Z,38.10
2019-03-13T11:02:13.154Z,37.70
2019-03-13T11:05:17.909Z,38.30
2019-03-13T11:08:07.456Z,38.30
2019-03-13T11:10:59.378Z,37.80
2019-03-13T11:13:47.474Z,37.20
2019-03-13T11:16:44.657Z,37.80
2019-03-13T11:19:30.619Z,36.70
2019-03-13T11:22:19.049Z,37.30
2019-03-13T11:25:11.869Z,37.60
2019-03-13T11:28:04.187Z,34.80
2019-03-13T11:30:51.986Z,34.10
2019-03-13T11:33:47.910Z,34.10
2019-03-13T11:36:28.974Z,33.90
2019-03-13T11:39:30.523Z,34.70
2019-03-13T11:42:15.590Z,33.80
2019-03-13T11:45:07.687Z,33.70
2019-03-13T11:48:11.265Z,33.50
2019-03-13T11:51:01.554Z,33.30
2019-03-13T11:53:49.213Z,33.30
2019-03-13T11:56:37.366Z,34.00
2019-03-13T11:59:25.129Z,34.20
2019-03-13T12:02:14.641Z,34.60
2019-03-13T12:05:13.869Z,37.20
2019-03-13T12:08:03.765Z,37.90
2019-03-13T12:10:41.279Z,37.90
2019-03-13T12:13:34.835Z,38.50
2019-03-13T12:16:25.046Z,37.50
2019-03-13T12:22:16.014Z,38.20
2019-03-13T12:25:07.911Z,39.50
2019-03-13T12:27:56.438Z,40.20
2019-03-13T12:30:50.158Z,39.20
2019-03-13T12:33:50.734Z,39.00
2019-03-13T12:36:35.837Z,38.50
2019-03-13T12:39:16.480Z,36.80
2019-03-13T12:42:08.936Z,37.20
2019-03-13T12:45:13.842Z,37.00
2019-03-13T12:48:16.628Z,36.80
2019-03-13T12:51:18.644Z,36.30
2019-03-13T12:54:17.195Z,35.90
2019-03-13T12:57:03.703Z,35.50
2019-03-13T12:59:55.173Z,35.70
2019-03-13T13:02:51.004Z,35.50
2019-03-13T13:09:03.964Z,36.80
2019-03-13T13:12:08.588Z,38.20
2019-03-13T13:15:12.663Z,38.80
2019-03-13T13:20:24.381Z,40.30
2019-03-13T13:24:03.826Z,40.70
2019-03-13T13:28:52.131Z,42.50
2019-03-13T13:31:22.625Z,43.10
2019-03-13T13:34:12.178Z,43.00
2019-03-13T13:36:42.530Z,43.30
2019-03-13T13:39:12.958Z,43.30
2019-03-13T13:41:43.808Z,43.70
2019-03-13T13:46:44.520Z,44.20
2019-03-13T13:49:16.079Z,44.40
2019-03-13T13:51:48.776Z,44.60
2019-03-13T13:56:50.534Z,43.80
2019-03-13T13:59:20.922Z,43.90
2019-03-13T14:01:51.765Z,44.20
2019-03-13T14:04:28.151Z,44.00
2019-03-13T14:06:58.200Z,43.90
2019-03-13T14:09:28.775Z,44.10
2019-03-13T14:12:00.842Z,43.80
2019-03-13T14:14:31.345Z,43.90
2019-03-13T14:17:22.927Z,43.30
2019-03-13T14:19:53.983Z,42.50
2019-03-13T14:22:24.516Z,41.80
2019-03-13T14:24:54.993Z,40.40
2019-03-13T14:27:25.416Z,39.80
2019-03-13T14:29:56.263Z,40.40
2019-03-13T14:32:26.884Z,40.00
2019-03-13T14:34:57.458Z,39.60
2019-03-13T14:37:27.971Z,38.80
2019-03-13T14:39:58.422Z,38.30
2019-03-13T14:42:37.820Z,38.90
2019-03-13T14:45:09.305Z,38.30
2019-03-13T14:47:39.680Z,37.20
2019-03-13T14:50:10.857Z,37.30
2019-03-13T14:52:43.623Z,37.90
2019-03-13T14:55:14.033Z,38.00
2019-03-13T14:57:44.443Z,38.10
2019-03-13T15:00:16.170Z,37.80
2019-03-13T15:02:46.623Z,37.50
2019-03-13T15:05:16.908Z,37.50
2019-03-13T15:07:47.407Z,37.60
2019-03-13T15:10:17.666Z,37.60
2019-03-13T15:12:47.990Z,36.90
2019-03-13T15:15:18.327Z,37.10
2019-03-13T15:17:48.698Z,37.50
2019-03-13T15:20:19.054Z,37.50
2019-03-13T15:22:49.349Z,37.20
2019-03-13T15:25:20.043Z,37.00
2019-03-13T15:27:50.680Z,37.00
2019-03-13T15:30:21.957Z,36.60
2019-03-13T15:32:52.469Z,36.50
2019-03-13T15:35:22.953Z,36.20
2019-03-13T15:37:53.485Z,35.80
2019-03-13T15:40:23.853Z,35.70
2019-03-13T15:42:54.183Z,35.70
2019-03-13T15:45:24.880Z,35.70
2019-03-13T15:47:55.382Z,35.70
2019-03-13T15:50:25.676Z,35.70
2019-03-13T15:52:56.146Z,35.30
2019-03-13T15:55:26.595Z,35.00
2019-03-13T15:57:57.083Z,34.90
2019-03-13T16:00:27.602Z,34.90
2019-03-13T16:02:58.105Z,34.90
2019-03-13T16:05:28.460Z,34.40
2019-03-13T16:07:58.770Z,34.20
2019-03-13T16:10:29.132Z,33.90
2019-03-13T16:13:08.621Z,33.80
2019-03-13T16:15:39.502Z,33.40
2019-03-13T16:18:09.962Z,33.30
2019-03-13T16:20:41.410Z,33.30
2019-03-13T16:23:12.004Z,33.20
2019-03-13T16:25:42.411Z,33.20
2019-03-13T16:28:12.923Z,33.10
2019-03-13T16:30:44.048Z,33.10
2019-03-13T16:33:14.523Z,32.90
2019-03-13T16:35:45.029Z,32.60
2019-03-13T16:38:15.333Z,32.70
2019-03-13T16:40:45.732Z,32.60
2019-03-13T16:43:16.025Z,32.50
2019-03-13T16:45:46.485Z,32.40
2019-03-13T16:48:17.099Z,32.30
2019-03-13T16:50:47.429Z,32.30
2019-03-13T16:53:17.836Z,32.30
2019-03-13T16:55:48.352Z,32.20
2019-03-13T16:58:18.802Z,32.10
2019-03-13T17:00:50.646Z,32.10
2019-03-13T17:03:21.268Z,32.10
2019-03-13T17:05:51.734Z,32.10
2019-03-13T17:08:24.862Z,32.00
2019-03-13T17:10:55.382Z,32.70
2019-03-13T17:13:25.699Z,32.10
2019-03-13T17:15:56.099Z,32.10
2019-03-13T17:18:26.571Z,32.10
2019-03-13T17:20:56.966Z,31.60
2019-03-13T17:23:27.382Z,30.90
2019-03-13T17:25:57.781Z,31.50
2019-03-13T17:28:28.197Z,31.60
2019-03-13T17:30:58.596Z,31.60
2019-03-13T17:33:29.047Z,31.60
2019-03-13T17:35:59.426Z,31.70
2019-03-13T17:38:29.921Z,31.70
2019-03-13T17:41:00.416Z,31.80
2019-03-13T17:43:39.320Z,31.80
2019-03-13T17:46:02.915Z,31.90
2019-03-13T17:48:33.223Z,32.00
2019-03-13T17:51:03.660Z,32.10
2019-03-13T17:53:34.066Z,32.00
2019-03-13T17:56:04.443Z,32.20
2019-03-13T17:58:34.833Z,32.20
2019-03-13T18:01:05.088Z,32.30
2019-03-13T18:03:35.549Z,32.40
2019-03-13T18:06:05.890Z,32.40
2019-03-13T18:08:36.288Z,32.50
2019-03-13T18:11:06.840Z,32.60
2019-03-13T18:13:37.265Z,32.60
2019-03-13T18:16:07.599Z,32.60
2019-03-13T18:18:38.024Z,32.70
2019-03-13T18:21:09.966Z,32.70
2019-03-13T18:23:40.424Z,32.70
2019-03-13T18:26:12.575Z,32.70
2019-03-13T18:28:43.079Z,32.80
2019-03-13T18:31:13.449Z,32.80
2019-03-13T18:33:44.732Z,32.90
2019-03-13T18:36:15.191Z,32.80
2019-03-13T18:38:45.663Z,32.90
2019-03-13T18:41:16.047Z,33.60
2019-03-13T18:43:46.502Z,33.00
2019-03-13T18:46:16.935Z,33.00
2019-03-13T18:48:47.296Z,33.00
2019-03-13T18:51:17.702Z,33.00
2019-03-13T18:53:48.099Z,33.00
2019-03-13T18:56:18.521Z,34.10
2019-03-13T18:58:48.948Z,34.20
2019-03-13T19:01:19.207Z,34.60
2019-03-13T19:03:49.555Z,34.60
2019-03-13T19:06:19.981Z,34.80
2019-03-13T19:08:50.330Z,36.20
2019-03-13T19:11:20.763Z,37.90
2019-03-13T19:13:51.207Z,39.40
2019-03-13T19:16:21.693Z,40.30
2019-03-13T19:18:52.059Z,40.30
2019-03-13T19:21:22.491Z,40.20
2019-03-13T19:23:52.856Z,40.10
2019-03-13T19:26:23.205Z,39.80
2019-03-13T19:28:53.639Z,39.80
2019-03-13T19:31:23.997Z,39.50
2019-03-13T19:33:54.414Z,39.30
2019-03-13T19:36:24.927Z,39.10
2019-03-13T19:38:55.201Z,39.10
2019-03-13T19:41:25.663Z,38.90
2019-03-13T19:43:56.078Z,38.60
2019-03-13T19:46:26.555Z,38.50
2019-03-13T19:48:56.921Z,38.30
2019-03-13T19:51:27.370Z,38.20
2019-03-13T19:53:57.840Z,38.20
2019-03-13T19:56:28.187Z,38.20
2019-03-13T19:58:58.847Z,38.20
2019-03-13T20:01:29.190Z,38.20
2019-03-13T20:03:59.685Z,38.30
2019-03-13T20:06:41.650Z,38.20
2019-03-13T20:09:02.303Z,38.20
2019-03-13T20:11:34.283Z,38.10
2019-03-13T20:14:04.898Z,38.00
2019-03-13T20:16:35.275Z,38.00
2019-03-13T20:19:05.744Z,37.90
2019-03-13T20:21:36.198Z,37.70
2019-03-13T20:24:06.623Z,37.70
2019-03-13T20:26:37.077Z,37.70
2019-03-13T20:29:07.527Z,37.70
2019-03-13T20:31:38.157Z,37.60
2019-03-13T20:34:08.580Z,37.50
2019-03-13T20:36:39.033Z,37.40
2019-03-13T20:39:09.501Z,37.30
2019-03-13T20:41:40.420Z,37.30
2019-03-13T20:44:10.926Z,37.90
2019-03-13T20:46:41.286Z,37.10
2019-03-13T20:49:11.777Z,37.00
2019-03-13T20:51:42.305Z,37.10
2019-03-13T20:54:12.791Z,37.00
2019-03-13T20:56:43.323Z,36.90
2019-03-13T20:59:13.791Z,36.80
2019-03-13T21:01:44.185Z,36.80
2019-03-13T21:04:14.545Z,36.70
2019-03-13T21:06:45.094Z,36.80
2019-03-13T21:09:15.574Z,36.60
2019-03-13T21:11:46.257Z,36.60
2019-03-13T21:14:16.680Z,36.60
2019-03-13T21:16:47.181Z,36.50
2019-03-13T21:19:17.711Z,36.40
2019-03-13T21:21:48.065Z,36.30
2019-03-13T21:24:18.445Z,36.30
2019-03-13T21:26:49.489Z,36.10
2019-03-13T21:29:19.968Z,36.10
2019-03-13T21:31:50.393Z,35.90
2019-03-13T21:34:20.820Z,35.80
2019-03-13T21:36:51.290Z,35.60
2019-03-13T21:39:21.751Z,35.60
2019-03-13T21:41:52.223Z,35.50
2019-03-13T21:44:22.769Z,35.60
2019-03-13T21:46:53.239Z,35.60
2019-03-13T21:49:23.674Z,35.60
2019-03-13T21:51:54.084Z,35.60
2019-03-13T21:54:24.539Z,35.60
2019-03-13T21:56:54.993Z,35.60
2019-03-13T21:59:25.512Z,35.60
2019-03-13T22:01:56.048Z,35.60
2019-03-13T22:04:26.472Z,35.40
2019-03-13T22:06:56.992Z,35.40
2019-03-13T22:09:27.400Z,35.30
2019-03-13T22:11:57.911Z,35.30
2019-03-13T22:14:28.367Z,35.30
2019-03-13T22:16:58.779Z,35.20
2019-03-13T22:19:29.168Z,35.00
2019-03-13T22:21:59.664Z,35.00
2019-03-13T22:24:30.045Z,34.90
2019-03-13T22:27:00.423Z,34.90
2019-03-13T22:29:30.876Z,34.80
2019-03-13T22:32:01.259Z,34.70
2019-03-13T22:34:31.757Z,34.70
2019-03-13T22:37:02.320Z,34.60
2019-03-13T22:39:33.029Z,34.50
2019-03-13T22:42:03.476Z,34.50
2019-03-13T22:44:33.984Z,34.50
2019-03-13T22:47:04.541Z,34.40
2019-03-13T22:49:34.899Z,34.30
2019-03-13T22:52:05.324Z,34.30
2019-03-13T22:54:35.797Z,34.30
2019-03-13T22:57:06.229Z,34.20
2019-03-13T22:59:36.680Z,34.20
2019-03-13T23:02:07.725Z,34.10
2019-03-13T23:04:38.278Z,34.10
2019-03-13T23:07:08.711Z,34.10
2019-03-13T23:09:39.177Z,34.00
2019-03-13T23:12:09.634Z,33.90
2019-03-13T23:14:39.989Z,33.90
2019-03-13T23:17:10.469Z,33.80
2019-03-13T23:19:40.861Z,33.80
2019-03-13T23:22:11.383Z,33.80
2019-03-13T23:24:41.767Z,33.70
2019-03-13T23:27:12.404Z,33.70
2019-03-13T23:29:42.853Z,33.60
2019-03-13T23:32:13.364Z,33.60
2019-03-13T23:34:43.797Z,33.60
2019-03-13T23:37:14.219Z,33.50
2019-03-13T23:39:44.624Z,33.50
2019-03-13T23:42:15.064Z,33.40
2019-03-13T23:44:45.496Z,33.40
2019-03-13T23:47:15.924Z,33.30
2019-03-13T23:49:46.406Z,33.30
2019-03-13T23:52:16.986Z,33.30
2019-03-13T23:54:47.413Z,33.30
2019-03-13T23:57:17.836Z,33.30
2019-03-13T23:59:48.228Z,33.30
